DAAV

Details ICAO DAAV (GJL)
Name JIJEL
Region Algeria
Timezone Africa/Algiers (UTC+1.0)
Plans Departing 4
Arriving 12
Stats Elevation 36 ft / 11 m (AMSL)
Location 36.795135° 5.873607°
Runways 1
Magnetic Variation 1.651° E
Sunrise 2018-05-22 04:25:29 UTC / 2018-05-22 05:25:29 Local
Sunset 2018-05-22 18:43:43 UTC / 2018-05-22 19:43:43 Local
Advertisement - Login to hide

Runways

ID Width Length Bearing (true) Bearing (mag) Surface Threshold Offset Overrun Length
17 148 ft / 45 m 7,904 ft / 2,409 m 171.05° 169.40° Asphalt 0 ft / 0 m 0 ft / 0 m
35 148 ft / 45 m 7,904 ft / 2,409 m 351.05° 349.40° Asphalt 0 ft / 0 m 0 ft / 0 m

Map

Weather


0- 5 10 15 20 25 30 35+ Temperature / ° C

Clouds and Precipitation
Forecast for 2018-05-22 18:00 UTC. Updated 5 hours ago

Ground ~20,000 ft ~40,000 ft Winds

METAR

DAAV 222100Z 15002KT 9999 FEW016 17/15 Q1018

TAF

TAF DAAV 221700Z 2218/2318 34008KT 9999 FEW023 SCT030 PROB30 TEMPO 2218/2224 FEW020CB TEMPO 2300/2308 2000 BR SCT008

Frequencies

Tower 119.70 MHz TWR
Warning: Do not use this data for real-world aviation or navigation. No guarantee of current accuracy is given.